createdAt,value
2018-04-18T00:02:01.468Z,1026.27
2018-04-18T00:07:01.473Z,1026.28
2018-04-18T00:18:01.601Z,1026.4
2018-04-18T00:23:01.545Z,1026.4
2018-04-18T00:28:01.468Z,1026.39
2018-04-18T00:33:02.521Z,1026.39
2018-04-18T00:38:01.435Z,1026.39
2018-04-18T00:43:01.552Z,1026.39
2018-04-18T00:48:01.473Z,1026.38
2018-04-18T00:58:01.577Z,1026.52
2018-04-18T01:03:02.491Z,1026.52
2018-04-18T01:08:01.468Z,1026.53
2018-04-18T01:13:02.500Z,1026.53
2018-04-18T01:18:01.457Z,1026.63
2018-04-18T01:23:01.529Z,1026.63
2018-04-18T01:28:01.470Z,1026.63
2018-04-18T01:33:02.486Z,1026.63
2018-04-18T01:38:01.473Z,1026.64
2018-04-18T01:48:01.471Z,1026.69
2018-04-18T02:03:02.527Z,1026.68
2018-04-18T02:08:01.473Z,1026.69
2018-04-18T02:18:01.547Z,1026.75
2018-04-18T02:23:05.716Z,1026.75
2018-04-18T02:28:01.463Z,1026.74
2018-04-18T02:38:02.496Z,1026.68
2018-04-18T02:53:01.605Z,1026.8
2018-04-18T03:08:04.621Z,1026.74
2018-04-18T03:23:01.452Z,1026.81
2018-04-18T03:28:01.439Z,1026.84
2018-04-18T03:38:01.453Z,1026.97
2018-04-18T03:48:01.474Z,1026.85
2018-04-18T03:58:01.434Z,1026.92
2018-04-18T04:03:01.408Z,1026.92
2018-04-18T04:08:01.439Z,1026.92
2018-04-18T04:13:01.461Z,1026.92
2018-04-18T04:18:01.440Z,1027.02
2018-04-18T04:23:01.451Z,1027.02
2018-04-18T04:28:01.458Z,1027.14
2018-04-18T04:43:01.479Z,1027.34
2018-04-18T04:58:01.527Z,1027.44
2018-04-18T05:03:01.500Z,1027.44
2018-04-18T05:08:01.480Z,1027.57
2018-04-18T05:13:01.500Z,1027.57
2018-04-18T05:18:01.473Z,1027.69
2018-04-18T05:23:01.460Z,1027.69
2018-04-18T05:28:01.409Z,1027.67
2018-04-18T05:33:01.450Z,1027.67
2018-04-18T05:38:01.408Z,1027.73
2018-04-18T05:43:01.471Z,1027.73
2018-04-18T05:48:01.416Z,1027.93
2018-04-18T05:53:01.462Z,1027.93
2018-04-18T05:58:01.452Z,1028.03
2018-04-18T06:03:01.461Z,1028.03
2018-04-18T06:08:01.464Z,1028.12
2018-04-18T06:13:01.404Z,1028.12
2018-04-18T06:18:01.453Z,1028.33
2018-04-18T06:23:01.334Z,1028.33
2018-04-18T06:28:01.488Z,1028.34
2018-04-18T06:33:01.468Z,1028.34
2018-04-18T06:38:01.544Z,1028.32
2018-04-18T06:43:06.487Z,1028.32
2018-04-18T06:48:01.557Z,1028.37
2018-04-18T06:53:01.545Z,1028.37
2018-04-18T06:58:01.505Z,1028.42
2018-04-18T07:03:01.456Z,1028.42
2018-04-18T07:08:01.498Z,1028.47
2018-04-18T07:13:01.496Z,1028.47
2018-04-18T07:18:01.520Z,1028.54
2018-04-18T07:24:01.553Z,1028.51
2018-04-18T07:29:01.489Z,1028.51
2018-04-18T07:34:01.498Z,1028.44
2018-04-18T07:39:01.555Z,1028.44
2018-04-18T07:44:01.491Z,1028.38
2018-04-18T07:49:03.578Z,1028.38
2018-04-18T07:54:01.496Z,1028.45
2018-04-18T07:59:04.621Z,1028.45
2018-04-18T08:04:01.536Z,1028.48
2018-04-18T08:09:01.645Z,1028.48
2018-04-18T08:14:01.473Z,1028.54
2018-04-18T08:19:03.530Z,1028.54
2018-04-18T08:24:01.480Z,1028.73
2018-04-18T08:29:02.520Z,1028.73
2018-04-18T08:34:01.585Z,1028.8
2018-04-18T08:39:01.565Z,1028.8
2018-04-18T08:44:01.485Z,1028.79
2018-04-18T08:59:01.626Z,1028.85
2018-04-18T09:04:01.449Z,1028.88
2018-04-18T09:09:02.524Z,1028.88
2018-04-18T09:19:01.316Z,1028.88
2018-04-18T09:24:01.478Z,1028.89
2018-04-18T09:29:02.586Z,1028.89
2018-04-18T09:34:01.456Z,1028.88
2018-04-18T09:39:06.500Z,1028.88
2018-04-18T09:44:01.474Z,1028.96
2018-04-18T09:49:02.533Z,1028.96
2018-04-18T09:54:01.453Z,1028.89
2018-04-18T10:00:03.723Z,1028.89
2018-04-18T10:10:01.626Z,1028.92
2018-04-18T10:15:01.638Z,1028.85
2018-04-18T10:25:05.668Z,1028.95
2018-04-18T10:30:01.722Z,1028.95
2018-04-18T10:35:01.527Z,1028.94
2018-04-18T10:40:03.591Z,1028.94
2018-04-18T10:45:01.633Z,1028.92
2018-04-18T10:50:03.528Z,1028.92
2018-04-18T10:55:01.542Z,1028.95
2018-04-18T11:00:03.062Z,1028.95
2018-04-18T11:05:01.477Z,1028.96
2018-04-18T11:10:05.740Z,1028.96
2018-04-18T11:15:01.632Z,1028.99
2018-04-18T11:30:05.835Z,1029.15
2018-04-18T11:35:01.444Z,1029.28
2018-04-18T11:40:02.563Z,1029.28
2018-04-18T11:45:01.822Z,1029.18
2018-04-18T11:50:01.628Z,1029.18
2018-04-18T12:00:01.710Z,1029.3
2018-04-18T12:05:01.494Z,1029.36
2018-04-18T12:15:02.669Z,1029.48
2018-04-18T12:20:03.533Z,1029.48
2018-04-18T12:25:01.567Z,1029.39
2018-04-18T12:30:01.779Z,1029.39
2018-04-18T12:35:01.632Z,1029.37
2018-04-18T12:51:01.564Z,1029.28
2018-04-18T13:01:01.235Z,1029.25
2018-04-18T13:06:01.528Z,1029.31
2018-04-18T13:16:01.291Z,1029.23
2018-04-18T13:21:04.625Z,1029.23
2018-04-18T13:26:01.466Z,1029.19
2018-04-18T13:36:02.507Z,1029.3
2018-04-18T13:41:03.521Z,1029.3
2018-04-18T13:57:01.745Z,1029.34
2018-04-18T14:02:01.543Z,1029.34
2018-04-18T14:07:01.524Z,1029.4
2018-04-18T14:12:06.551Z,1029.4
2018-04-18T14:27:01.525Z,1029.44
2018-04-18T14:32:01.553Z,1029.44
2018-04-18T14:37:01.461Z,1029.37
2018-04-18T14:52:01.508Z,1029.61
2018-04-18T14:57:01.696Z,1029.55
2018-04-18T15:12:05.579Z,1029.38
2018-04-18T15:18:01.450Z,1029.49
2018-04-18T15:28:02.500Z,1029.43
2018-04-18T15:38:01.540Z,1029.37
2018-04-18T15:48:01.333Z,1029.3
2018-04-18T15:58:01.456Z,1029.26
2018-04-18T16:03:01.267Z,1029.26
2018-04-18T16:08:01.408Z,1029.34
2018-04-18T16:13:01.470Z,1029.34
2018-04-18T16:18:01.447Z,1029.37
2018-04-18T16:23:01.559Z,1029.37
2018-04-18T16:28:01.463Z,1029.41
2018-04-18T16:38:01.455Z,1029.41
2018-04-18T16:43:01.452Z,1029.41
2018-04-18T16:48:01.446Z,1029.47
2018-04-18T17:03:01.432Z,1029.41
2018-04-18T17:08:01.449Z,1029.41
2018-04-18T17:13:01.443Z,1029.41
2018-04-18T17:18:01.470Z,1029.38
2018-04-18T17:28:01.466Z,1029.41
2018-04-18T17:33:01.486Z,1029.41
2018-04-18T17:38:01.477Z,1029.45
2018-04-18T17:43:01.485Z,1029.45
2018-04-18T17:48:01.266Z,1029.48
2018-04-18T17:53:01.428Z,1029.48
2018-04-18T17:58:01.452Z,1029.43
2018-04-18T18:03:01.428Z,1029.43
2018-04-18T18:08:01.586Z,1029.48
2018-04-18T18:13:01.500Z,1029.48
2018-04-18T18:18:01.461Z,1029.59
2018-04-18T18:23:01.443Z,1029.59
2018-04-18T18:28:01.530Z,1029.63
2018-04-18T18:33:01.422Z,1029.63
2018-04-18T18:38:01.623Z,1029.75
2018-04-18T18:43:01.444Z,1029.75
2018-04-18T18:48:01.477Z,1029.9
2018-04-18T18:53:01.493Z,1029.9
2018-04-18T18:59:01.444Z,1029.93
2018-04-18T19:04:01.430Z,1029.97
2018-04-18T19:09:01.422Z,1029.97
2018-04-18T19:14:01.460Z,1030.07
2018-04-18T19:19:01.452Z,1030.07
2018-04-18T19:24:01.451Z,1030.12
2018-04-18T19:29:01.464Z,1030.12
2018-04-18T19:34:01.521Z,1030.11
2018-04-18T19:39:03.435Z,1030.11
2018-04-18T19:44:01.290Z,1030.24
2018-04-18T19:54:01.549Z,1030.17
2018-04-18T19:59:03.534Z,1030.17
2018-04-18T20:04:01.453Z,1030.28
2018-04-18T20:09:16.345Z,1030.28
2018-04-18T20:14:01.440Z,1030.37
2018-04-18T20:19:06.509Z,1030.37
2018-04-18T20:24:01.470Z,1030.46
2018-04-18T20:29:03.527Z,1030.46
2018-04-18T20:35:01.470Z,1030.55
2018-04-18T20:45:01.501Z,1030.53
2018-04-18T20:50:05.602Z,1030.53
2018-04-18T20:55:01.488Z,1030.5
2018-04-18T21:00:04.649Z,1030.5
2018-04-18T21:05:01.452Z,1030.62
2018-04-18T21:10:02.504Z,1030.62
2018-04-18T21:15:01.471Z,1030.5
2018-04-18T21:20:02.535Z,1030.5
2018-04-18T21:25:01.443Z,1030.47
2018-04-18T21:30:03.632Z,1030.47
2018-04-18T21:35:01.447Z,1030.54
2018-04-18T21:40:01.479Z,1030.54
2018-04-18T21:45:01.485Z,1030.58
2018-04-18T21:56:02.525Z,1030.6
2018-04-18T22:06:04.607Z,1030.67
2018-04-18T22:16:01.561Z,1030.67
2018-04-18T22:26:01.532Z,1030.54
2018-04-18T22:36:03.520Z,1030.38
2018-04-18T22:46:02.498Z,1030.47
2018-04-18T22:51:02.470Z,1030.47
2018-04-18T22:56:01.476Z,1030.5
2018-04-18T23:01:03.534Z,1030.5
2018-04-18T23:06:01.440Z,1030.31
2018-04-18T23:11:02.602Z,1030.31
2018-04-18T23:16:01.459Z,1030.25
2018-04-18T23:26:04.610Z,1030.49
2018-04-18T23:36:01.673Z,1030.44
2018-04-18T23:51:01.640Z,1030.39
2018-04-18T23:56:01.505Z,1030.3
